CYWH

Victoria Harbour Seaplane Base

Victoria, British Columbia, Canada
TAF CYWH 211738Z 2118/2204 19006KT P6SM FEW025 FEW120 SCT250 BECMG 2202/2204 21008KT RMK NXT FCST BY 220000Z
Issued Valid From Valid To
Jul-21 @ 17:38 UTC
(5 hours ago)
Jul-21 @ 18:00 UTC
(5 hours ago)
Jul-22 @ 04:00 UTC
(in 5 hours)
Jul-21 @ 18:00 to Jul-22 @ 02:00
TAF CYWH 211738Z 2118/2204 19006KT P6SM FEW025 FEW120 SCT250
Wind Visibility Clouds
190° at 6 knots Greater than 6 miles
  • Few at 2,500' AGL
  • Few at 12,000' AGL
  • Scattered at 25,000' AGL
Becoming Jul-22 @ 02:00 to Jul-22 @ 04:00
BECMG 2202/2204 21008KT RMK NXT FCST BY 220000Z
Wind Visibility Clouds
210° at 8 knots Greater than 6 miles
  • Few at 2,500' AGL
  • Few at 12,000' AGL
  • Scattered at 25,000' AGL
TAF CYWH 211738Z 2118/2204 19006KT P6SM FEW025 FEW120 SCT250 BECMG 2202/2204 21008KT RMK NXT FCST BY 220000Z
Issued Jul-21 @ 17:38 UTC
(5 hours ago)
Valid From Jul-21 @ 18:00 UTC
(5 hours ago)
Valid To Jul-22 @ 04:00 UTC
(in 5 hours)
Jul-21 @ 18:00 - Jul-22 @ 02:00
Wind Visibility
190° at 6 knots Greater than 6 miles
Clouds
  • Few at 2,500' AGL
  • Few at 12,000' AGL
  • Scattered at 25,000' AGL
Becoming Jul-22 @ 02:00 - Jul-22 @ 04:00
Wind Visibility
210° at 8 knots Greater than 6 miles
Clouds
  • Few at 2,500' AGL
  • Few at 12,000' AGL
  • Scattered at 25,000' AGL